createdAt,value
2019-02-02T00:00:35.308Z,22.23
2019-02-02T00:03:03.599Z,22.77
2019-02-02T00:05:31.379Z,21.77
2019-02-02T00:07:59.159Z,23.60
2019-02-02T00:10:26.963Z,23.23
2019-02-02T00:12:54.737Z,23.77
2019-02-02T00:15:22.571Z,23.07
2019-02-02T00:17:50.369Z,23.50
2019-02-02T00:20:18.211Z,23.47
2019-02-02T00:22:46.131Z,23.77
2019-02-02T00:25:14.039Z,22.03
2019-02-02T00:27:41.900Z,24.43
2019-02-02T00:30:10.956Z,21.27
2019-02-02T00:32:38.743Z,23.47
2019-02-02T00:35:06.623Z,22.53
2019-02-02T00:37:34.405Z,22.50
2019-02-02T00:40:02.303Z,22.87
2019-02-02T00:42:30.055Z,24.17
2019-02-02T00:44:57.831Z,23.10
2019-02-02T00:47:25.595Z,22.33
2019-02-02T00:49:53.402Z,23.07
2019-02-02T00:52:21.147Z,21.60
2019-02-02T00:54:48.925Z,23.10
2019-02-02T00:57:16.656Z,22.83
2019-02-02T00:59:44.410Z,23.03
2019-02-02T01:02:12.118Z,21.40
2019-02-02T01:04:39.886Z,22.17
2019-02-02T01:07:07.640Z,22.07
2019-02-02T01:09:35.432Z,22.73
2019-02-02T01:12:03.315Z,21.03
2019-02-02T01:14:31.066Z,22.30
2019-02-02T01:16:58.847Z,22.20
2019-02-02T01:19:26.614Z,22.03
2019-02-02T01:21:54.386Z,22.43
2019-02-02T01:24:22.240Z,22.03
2019-02-02T01:26:50.004Z,22.10
2019-02-02T01:29:17.774Z,20.70
2019-02-02T01:31:45.572Z,21.70
2019-02-02T01:34:13.362Z,21.77
2019-02-02T01:36:41.114Z,22.77
2019-02-02T01:39:08.880Z,22.53
2019-02-02T01:41:36.700Z,22.70
2019-02-02T01:44:04.676Z,22.43
2019-02-02T01:46:32.449Z,22.57
2019-02-02T01:49:00.239Z,22.83
2019-02-02T01:51:28.052Z,21.83
2019-02-02T01:53:55.800Z,21.97
2019-02-02T01:56:23.555Z,21.50
2019-02-02T01:58:51.292Z,22.03
2019-02-02T02:01:19.098Z,21.43
2019-02-02T02:03:46.823Z,21.90
2019-02-02T02:06:14.613Z,22.23
2019-02-02T02:08:42.377Z,21.87
2019-02-02T02:11:10.262Z,20.90
2019-02-02T02:13:38.133Z,21.33
2019-02-02T02:16:05.888Z,22.27
2019-02-02T02:18:33.677Z,21.63
2019-02-02T02:21:01.466Z,20.37
2019-02-02T02:23:29.277Z,20.33
2019-02-02T02:25:57.049Z,21.20
2019-02-02T02:28:28.180Z,21.77
2019-02-02T02:30:54.511Z,21.33
2019-02-02T02:33:22.273Z,22.37
2019-02-02T02:35:50.006Z,21.90
2019-02-02T02:38:17.795Z,20.33
2019-02-02T02:40:45.561Z,21.23
2019-02-02T02:43:13.347Z,20.77
2019-02-02T02:45:41.067Z,20.77
2019-02-02T02:48:08.834Z,21.53
2019-02-02T02:50:36.607Z,20.53
2019-02-02T02:53:04.408Z,20.63
2019-02-02T02:55:32.195Z,20.50
2019-02-02T02:57:59.997Z,22.47
2019-02-02T03:00:27.808Z,20.57
2019-02-02T03:02:55.670Z,20.53
2019-02-02T03:05:23.427Z,20.67
2019-02-02T03:07:52.004Z,21.40
2019-02-02T03:10:21.319Z,21.30
2019-02-02T03:12:49.433Z,21.20
2019-02-02T03:15:18.010Z,19.80
2019-02-02T03:17:45.921Z,21.83
2019-02-02T03:20:14.324Z,21.40
2019-02-02T03:22:42.148Z,20.70
2019-02-02T03:25:15.932Z,20.40
2019-02-02T03:27:43.715Z,21.07
2019-02-02T03:30:14.700Z,21.57
2019-02-02T03:32:42.565Z,20.90
2019-02-02T03:35:11.765Z,21.90
2019-02-02T03:37:39.541Z,20.73
2019-02-02T03:40:14.029Z,20.37
2019-02-02T03:42:41.757Z,21.27
2019-02-02T03:45:10.666Z,19.57
2019-02-02T03:47:38.400Z,21.37
2019-02-02T03:50:07.199Z,21.40
2019-02-02T03:52:34.972Z,21.93
2019-02-02T03:55:03.100Z,22.17
2019-02-02T03:57:30.828Z,22.03
2019-02-02T03:59:58.592Z,22.33
2019-02-02T04:02:26.330Z,20.50
2019-02-02T04:04:54.091Z,21.73
2019-02-02T04:07:21.842Z,21.67
2019-02-02T04:09:49.688Z,21.53
2019-02-02T04:12:17.493Z,21.10
2019-02-02T04:14:45.289Z,21.80
2019-02-02T04:17:13.059Z,22.13
2019-02-02T04:19:40.825Z,22.37
2019-02-02T04:22:08.595Z,22.13
2019-02-02T04:24:36.336Z,23.67
2019-02-02T04:27:04.071Z,23.27
2019-02-02T04:29:31.848Z,22.07
2019-02-02T04:31:59.607Z,22.70
2019-02-02T04:34:27.395Z,22.03
2019-02-02T04:36:55.127Z,23.70
2019-02-02T04:39:22.909Z,22.83
2019-02-02T04:41:50.680Z,22.13
2019-02-02T04:44:18.461Z,23.53
2019-02-02T04:46:46.205Z,22.83
2019-02-02T04:49:13.993Z,23.00
2019-02-02T04:51:41.745Z,24.73
2019-02-02T04:54:09.485Z,22.97
2019-02-02T04:56:37.231Z,24.90
2019-02-02T04:59:05.014Z,23.37
2019-02-02T05:01:34.116Z,23.03
2019-02-02T05:04:01.917Z,23.57
2019-02-02T05:06:29.683Z,26.00
2019-02-02T05:08:57.431Z,24.27
2019-02-02T05:11:25.181Z,24.97
2019-02-02T05:13:52.933Z,26.53
2019-02-02T05:16:20.716Z,26.23
2019-02-02T05:18:48.471Z,25.93
2019-02-02T05:21:16.258Z,24.27
2019-02-02T05:23:43.992Z,26.57
2019-02-02T05:26:11.789Z,24.50
2019-02-02T05:28:39.590Z,25.97
2019-02-02T05:31:07.380Z,23.80
2019-02-02T05:33:35.153Z,25.47
2019-02-02T05:36:03.008Z,26.07
2019-02-02T05:38:30.766Z,25.13
2019-02-02T05:40:58.530Z,26.93
2019-02-02T05:43:26.284Z,26.53
2019-02-02T05:45:54.040Z,27.30
2019-02-02T05:48:21.886Z,25.20
2019-02-02T05:50:49.719Z,27.90
2019-02-02T05:53:17.434Z,26.10
2019-02-02T05:55:45.196Z,26.57
2019-02-02T05:58:12.948Z,26.83
2019-02-02T06:00:46.960Z,27.43
2019-02-02T06:03:14.692Z,26.97
2019-02-02T06:05:42.456Z,26.80
2019-02-02T06:08:10.234Z,29.77
2019-02-02T06:10:37.997Z,28.10
2019-02-02T06:13:05.749Z,28.60
2019-02-02T06:15:33.486Z,29.50
2019-02-02T06:18:01.255Z,29.57
2019-02-02T06:20:29.022Z,31.87
2019-02-02T06:22:56.757Z,29.23
2019-02-02T06:25:24.550Z,28.97
2019-02-02T06:27:52.300Z,29.13
2019-02-02T06:30:20.273Z,29.70
2019-02-02T06:32:48.263Z,29.20
2019-02-02T06:35:16.231Z,30.33
2019-02-02T06:37:43.997Z,29.43
2019-02-02T06:40:12.418Z,31.43
2019-02-02T06:42:40.293Z,31.27
2019-02-02T06:45:12.989Z,30.57
2019-02-02T06:47:40.782Z,29.27
2019-02-02T06:50:12.541Z,29.77
2019-02-02T06:52:40.340Z,28.23
2019-02-02T06:55:09.216Z,30.37
2019-02-02T06:57:36.975Z,30.20
2019-02-02T07:00:15.860Z,30.03
2019-02-02T07:02:37.123Z,30.23
2019-02-02T07:05:05.453Z,29.73
2019-02-02T07:07:33.196Z,30.93
2019-02-02T07:10:00.932Z,30.50
2019-02-02T07:12:28.757Z,31.73
2019-02-02T07:14:56.497Z,27.93
2019-02-02T07:17:24.232Z,29.73
2019-02-02T07:19:51.966Z,30.90
2019-02-02T07:22:19.760Z,29.70
2019-02-02T07:24:50.071Z,29.27
2019-02-02T07:27:17.204Z,31.17
2019-02-02T07:29:44.988Z,28.53
2019-02-02T07:32:12.759Z,31.60
2019-02-02T07:34:40.522Z,29.73
2019-02-02T07:37:08.284Z,30.33
2019-02-02T07:39:36.056Z,33.23
2019-02-02T07:42:03.882Z,29.10
2019-02-02T07:44:31.723Z,30.17
2019-02-02T07:46:59.500Z,30.77
2019-02-02T07:49:27.282Z,30.87
2019-02-02T07:51:55.034Z,33.13
2019-02-02T07:54:22.816Z,32.10
2019-02-02T07:56:50.537Z,30.67
2019-02-02T07:59:18.299Z,32.00
2019-02-02T08:01:46.040Z,32.80
2019-02-02T08:04:13.792Z,32.10
2019-02-02T08:06:41.567Z,34.30
2019-02-02T08:09:09.436Z,33.50
2019-02-02T08:11:37.209Z,33.07
2019-02-02T08:14:05.317Z,32.97
2019-02-02T08:16:33.087Z,33.37
2019-02-02T08:19:00.829Z,34.73
2019-02-02T08:21:28.587Z,36.07
2019-02-02T08:23:56.385Z,34.00
2019-02-02T08:26:24.149Z,33.10
2019-02-02T08:28:51.934Z,34.37
2019-02-02T08:31:19.740Z,31.77
2019-02-02T08:33:47.506Z,34.13
2019-02-02T08:36:15.303Z,33.07
2019-02-02T08:38:43.073Z,34.43
2019-02-02T08:41:10.894Z,33.67
2019-02-02T08:43:38.919Z,41.05
2019-02-02T08:46:06.737Z,34.67
2019-02-02T08:48:34.548Z,34.93
2019-02-02T08:51:02.374Z,34.97
2019-02-02T08:53:30.238Z,34.93
2019-02-02T08:55:58.081Z,33.40
2019-02-02T08:58:25.832Z,33.77
2019-02-02T09:01:03.819Z,34.33
2019-02-02T09:03:23.501Z,33.67
2019-02-02T09:05:51.439Z,32.57
2019-02-02T09:08:19.235Z,32.00
2019-02-02T09:10:47.056Z,32.53
2019-02-02T09:13:15.343Z,34.17
2019-02-02T09:15:43.225Z,32.63
2019-02-02T09:18:11.083Z,34.77
2019-02-02T09:20:38.928Z,33.33
2019-02-02T09:23:06.905Z,34.67
2019-02-02T09:25:34.794Z,34.53
2019-02-02T09:28:02.634Z,34.27
2019-02-02T09:30:33.599Z,35.30
2019-02-02T09:33:01.382Z,34.83
2019-02-02T09:35:29.352Z,32.50
2019-02-02T09:37:57.134Z,35.10
2019-02-02T09:40:25.719Z,34.20
2019-02-02T09:42:53.670Z,35.53
2019-02-02T09:45:21.748Z,35.33
2019-02-02T09:47:50.127Z,34.10
2019-02-02T09:50:20.444Z,34.27
2019-02-02T09:52:48.240Z,37.43
2019-02-02T09:55:18.140Z,33.60
2019-02-02T09:57:47.168Z,35.13
2019-02-02T10:00:21.433Z,35.37
2019-02-02T10:02:49.640Z,33.23
2019-02-02T10:05:19.257Z,34.40
2019-02-02T10:07:47.898Z,33.90
2019-02-02T10:10:18.758Z,32.70
2019-02-02T10:12:46.525Z,37.20
2019-02-02T10:15:16.409Z,32.73
2019-02-02T10:17:44.204Z,35.27
2019-02-02T10:20:15.488Z,37.50
2019-02-02T10:22:43.485Z,38.67
2019-02-02T10:25:14.040Z,37.90
2019-02-02T10:27:41.897Z,36.37
2019-02-02T10:30:36.982Z,35.03
2019-02-02T10:33:05.173Z,37.17
2019-02-02T10:35:33.152Z,35.13
2019-02-02T10:38:01.205Z,34.30
2019-02-02T10:40:30.125Z,35.07
2019-02-02T10:42:58.127Z,34.20
2019-02-02T10:45:25.901Z,36.37
2019-02-02T10:47:53.689Z,35.77
2019-02-02T10:50:21.579Z,35.07
2019-02-02T10:52:49.672Z,36.47
2019-02-02T10:55:17.631Z,36.63
2019-02-02T10:57:45.527Z,34.33
2019-02-02T11:00:20.489Z,34.10
2019-02-02T11:02:48.267Z,32.77
2019-02-02T11:05:16.449Z,34.50
2019-02-02T11:07:44.340Z,35.43
2019-02-02T11:10:18.279Z,33.50
2019-02-02T11:12:46.472Z,33.70
2019-02-02T11:15:15.929Z,32.33
2019-02-02T11:17:43.819Z,31.97
2019-02-02T11:20:17.579Z,33.63
2019-02-02T11:22:44.950Z,31.10
2019-02-02T11:25:13.073Z,30.17
2019-02-02T11:27:40.984Z,29.37
2019-02-02T11:30:10.800Z,31.97
2019-02-02T11:32:38.653Z,32.47
2019-02-02T11:35:08.876Z,31.57
2019-02-02T11:37:36.710Z,29.83
2019-02-02T11:40:06.010Z,30.73
2019-02-02T11:42:33.929Z,28.87
2019-02-02T11:45:01.854Z,30.50
2019-02-02T11:47:29.676Z,29.83
2019-02-02T11:49:57.496Z,29.73
2019-02-02T11:52:25.284Z,30.83
2019-02-02T11:54:53.204Z,30.23
2019-02-02T11:57:21.067Z,30.07
2019-02-02T11:59:48.840Z,30.27
2019-02-02T12:02:16.634Z,30.60
2019-02-02T12:04:44.417Z,30.67
2019-02-02T12:07:12.202Z,30.80
2019-02-02T12:09:40.073Z,29.87
2019-02-02T12:12:07.845Z,31.10
2019-02-02T12:14:35.653Z,29.80
2019-02-02T12:17:03.426Z,29.40
2019-02-02T12:19:31.231Z,30.47
2019-02-02T12:21:58.976Z,31.40
2019-02-02T12:24:26.783Z,29.23
2019-02-02T12:26:54.595Z,29.30
2019-02-02T12:29:22.472Z,29.00
2019-02-02T12:31:50.283Z,31.03
2019-02-02T12:34:18.076Z,30.03
2019-02-02T12:36:45.871Z,30.00
2019-02-02T12:39:13.668Z,30.97
2019-02-02T12:41:41.469Z,28.97
2019-02-02T12:44:09.619Z,29.13
2019-02-02T12:46:37.483Z,28.93
2019-02-02T12:49:05.270Z,30.33
2019-02-02T12:51:33.051Z,28.37
2019-02-02T12:54:00.977Z,30.40
2019-02-02T12:56:28.791Z,27.80
2019-02-02T12:58:56.617Z,28.53
2019-02-02T13:01:24.437Z,27.77
2019-02-02T13:04:01.335Z,25.73
2019-02-02T13:06:21.963Z,28.27
2019-02-02T13:08:49.807Z,26.53
2019-02-02T13:11:17.639Z,27.03
2019-02-02T13:13:45.437Z,26.83
2019-02-02T13:16:13.255Z,26.43
2019-02-02T13:18:41.117Z,27.13
2019-02-02T13:21:09.518Z,27.03
2019-02-02T13:23:37.312Z,25.80
2019-02-02T13:26:05.888Z,26.67
2019-02-02T13:28:36.360Z,27.40
2019-02-02T13:31:04.297Z,27.73
2019-02-02T13:33:32.149Z,27.43
2019-02-02T13:35:59.928Z,26.67
2019-02-02T13:38:27.705Z,27.93
2019-02-02T13:40:55.521Z,29.43
2019-02-02T13:43:23.487Z,29.83
2019-02-02T13:45:51.394Z,28.80
2019-02-02T13:48:19.202Z,28.07
2019-02-02T13:50:47.069Z,30.07
2019-02-02T13:53:15.024Z,30.63
2019-02-02T13:55:42.855Z,28.60
2019-02-02T13:58:10.694Z,29.80
2019-02-02T14:00:38.512Z,29.47
2019-02-02T14:03:06.456Z,32.73
2019-02-02T14:05:34.344Z,34.03
2019-02-02T14:08:02.392Z,31.47
2019-02-02T14:10:31.405Z,30.80
2019-02-02T14:12:59.317Z,32.50
2019-02-02T14:15:27.086Z,31.47
2019-02-02T14:17:54.935Z,31.27
2019-02-02T14:20:22.876Z,31.03
2019-02-02T14:22:50.841Z,30.03
2019-02-02T14:25:18.763Z,28.57
2019-02-02T14:27:46.593Z,30.07
2019-02-02T14:30:19.734Z,28.57
2019-02-02T14:32:47.648Z,28.60
2019-02-02T14:35:17.041Z,29.07
2019-02-02T14:37:45.143Z,28.83
2019-02-02T14:40:14.022Z,29.63
2019-02-02T14:42:41.937Z,29.57
2019-02-02T14:45:12.947Z,27.30
2019-02-02T14:47:40.729Z,30.20
2019-02-02T14:50:12.587Z,28.57
2019-02-02T14:52:40.385Z,29.67
2019-02-02T14:55:10.529Z,27.43
2019-02-02T14:57:38.272Z,29.33
2019-02-02T15:00:11.866Z,29.17
2019-02-02T15:02:39.746Z,29.33
2019-02-02T15:05:09.419Z,29.80
2019-02-02T15:07:37.276Z,29.27
2019-02-02T15:10:05.927Z,29.90
2019-02-02T15:12:33.729Z,28.97
2019-02-02T15:15:01.491Z,30.67
2019-02-02T15:17:29.289Z,29.70
2019-02-02T15:19:57.087Z,29.13
2019-02-02T15:22:24.861Z,28.43
2019-02-02T15:24:52.651Z,31.10
2019-02-02T15:27:20.405Z,30.13
2019-02-02T15:29:48.269Z,28.73
2019-02-02T15:32:16.066Z,27.60
2019-02-02T15:34:43.834Z,28.50
2019-02-02T15:37:11.580Z,28.23
2019-02-02T15:39:39.396Z,28.53
2019-02-02T15:42:07.227Z,30.93
2019-02-02T15:44:35.148Z,29.67
2019-02-02T15:47:02.940Z,30.03
2019-02-02T15:49:30.833Z,31.70
2019-02-02T15:51:58.612Z,30.47
2019-02-02T15:54:26.404Z,30.77
2019-02-02T15:56:54.200Z,33.53
2019-02-02T15:59:21.986Z,32.63
2019-02-02T16:01:49.776Z,32.13
2019-02-02T16:04:17.545Z,32.47
2019-02-02T16:06:45.514Z,30.93
2019-02-02T16:09:13.302Z,31.27
2019-02-02T16:11:41.077Z,30.00
2019-02-02T16:14:08.844Z,32.67
2019-02-02T16:16:36.617Z,31.10
2019-02-02T16:19:04.655Z,31.43
2019-02-02T16:21:32.683Z,30.57
2019-02-02T16:24:00.456Z,31.27
2019-02-02T16:26:28.257Z,28.97
2019-02-02T16:28:56.080Z,31.47
2019-02-02T16:31:23.939Z,30.77
2019-02-02T16:34:01.485Z,30.30
2019-02-02T16:36:21.415Z,31.17
2019-02-02T16:38:49.190Z,30.23
2019-02-02T16:41:16.963Z,31.50
2019-02-02T16:43:44.819Z,32.60
2019-02-02T16:46:12.636Z,32.10
2019-02-02T16:48:40.472Z,32.33
2019-02-02T16:51:08.382Z,34.03
2019-02-02T16:53:36.153Z,33.10
2019-02-02T16:56:04.155Z,31.10
2019-02-02T16:58:31.982Z,29.67
2019-02-02T17:01:01.693Z,31.77
2019-02-02T17:03:31.345Z,29.73
2019-02-02T17:05:59.112Z,32.43
2019-02-02T17:08:26.890Z,32.33
2019-02-02T17:10:54.745Z,32.43
2019-02-02T17:13:22.545Z,31.80
2019-02-02T17:15:50.376Z,32.73
2019-02-02T17:18:18.163Z,32.33
2019-02-02T17:20:45.923Z,31.13
2019-02-02T17:23:13.749Z,31.73
2019-02-02T17:25:41.611Z,32.10
2019-02-02T17:28:09.524Z,31.43
2019-02-02T17:30:37.438Z,28.90
2019-02-02T17:33:08.759Z,29.77
2019-02-02T17:35:36.632Z,32.73
2019-02-02T17:38:04.534Z,32.33
2019-02-02T17:40:32.299Z,30.70
2019-02-02T17:43:00.154Z,29.37
2019-02-02T17:45:30.762Z,29.67
2019-02-02T17:47:58.714Z,31.80
2019-02-02T17:50:26.595Z,30.53
2019-02-02T17:52:54.614Z,32.50
2019-02-02T17:55:23.690Z,31.00
2019-02-02T17:57:51.589Z,29.97
2019-02-02T18:00:32.996Z,30.97
2019-02-02T18:03:00.838Z,31.57
2019-02-02T18:05:28.658Z,29.80
2019-02-02T18:07:56.444Z,30.67
2019-02-02T18:10:24.272Z,30.50
2019-02-02T18:12:52.072Z,29.03
2019-02-02T18:15:19.953Z,31.57
2019-02-02T18:17:47.778Z,30.87
2019-02-02T18:20:15.799Z,31.07
2019-02-02T18:22:43.720Z,30.00
2019-02-02T18:25:12.619Z,31.37
2019-02-02T18:27:40.545Z,29.43
2019-02-02T18:30:13.191Z,29.33
2019-02-02T18:32:41.080Z,29.67
2019-02-02T18:35:09.704Z,30.40
2019-02-02T18:37:37.514Z,29.90
2019-02-02T18:40:06.898Z,30.50
2019-02-02T18:42:34.672Z,29.27
2019-02-02T18:45:03.147Z,32.53
2019-02-02T18:47:31.029Z,29.80
2019-02-02T18:49:58.859Z,30.10
2019-02-02T18:52:26.689Z,32.83
2019-02-02T18:54:54.485Z,34.30
2019-02-02T18:57:22.332Z,35.03
2019-02-02T18:59:50.145Z,34.53
2019-02-02T19:02:17.965Z,33.67
2019-02-02T19:04:45.725Z,32.47
2019-02-02T19:07:13.493Z,29.87
2019-02-02T19:09:41.299Z,29.53
2019-02-02T19:12:09.276Z,29.97
2019-02-02T19:14:37.063Z,29.93
2019-02-02T19:17:04.917Z,30.83
2019-02-02T19:19:32.675Z,29.17
2019-02-02T19:22:00.437Z,30.63
2019-02-02T19:24:28.246Z,30.57
2019-02-02T19:26:56.015Z,30.13
2019-02-02T19:29:23.780Z,31.23
2019-02-02T19:31:51.559Z,30.67
2019-02-02T19:34:19.446Z,30.53
2019-02-02T19:36:47.235Z,29.10
2019-02-02T19:39:14.972Z,30.77
2019-02-02T19:41:42.748Z,29.63
2019-02-02T19:44:10.503Z,31.00
2019-02-02T19:46:38.349Z,28.87
2019-02-02T19:49:06.089Z,30.53
2019-02-02T19:51:33.858Z,31.53
2019-02-02T19:54:01.936Z,31.40
2019-02-02T19:56:29.730Z,29.90
2019-02-02T19:58:57.510Z,30.03
2019-02-02T20:01:25.322Z,30.70
2019-02-02T20:03:53.078Z,31.23
2019-02-02T20:06:20.866Z,29.33
2019-02-02T20:08:48.809Z,30.30
2019-02-02T20:11:16.610Z,29.50
2019-02-02T20:13:44.397Z,28.60
2019-02-02T20:16:12.124Z,30.03
2019-02-02T20:18:39.963Z,29.17
2019-02-02T20:21:07.833Z,30.10
2019-02-02T20:23:38.617Z,29.07
2019-02-02T20:26:05.423Z,29.67
2019-02-02T20:28:33.245Z,28.80
2019-02-02T20:31:01.044Z,28.67
2019-02-02T20:33:29.891Z,29.27
2019-02-02T20:35:57.686Z,30.40
2019-02-02T20:38:25.539Z,29.03
2019-02-02T20:40:53.340Z,30.40
2019-02-02T20:43:21.166Z,28.53
2019-02-02T20:45:48.951Z,27.00
2019-02-02T20:48:16.797Z,28.17
2019-02-02T20:50:44.638Z,29.33
2019-02-02T20:53:12.533Z,30.27
2019-02-02T20:55:43.246Z,29.00
2019-02-02T20:58:11.064Z,28.73
2019-02-02T21:00:39.121Z,29.23
2019-02-02T21:03:06.905Z,28.23
2019-02-02T21:05:34.711Z,26.50
2019-02-02T21:08:04.597Z,28.33
2019-02-02T21:10:32.447Z,28.47
2019-02-02T21:13:00.222Z,29.07
2019-02-02T21:15:28.125Z,28.43
2019-02-02T21:17:55.901Z,30.60
2019-02-02T21:20:26.192Z,28.93
2019-02-02T21:22:54.025Z,27.30
2019-02-02T21:25:22.146Z,29.07
2019-02-02T21:27:49.937Z,29.30
2019-02-02T21:30:26.130Z,29.40
2019-02-02T21:32:53.893Z,29.47
2019-02-02T21:35:22.311Z,30.77
2019-02-02T21:37:50.054Z,29.83
2019-02-02T21:40:21.011Z,30.53
2019-02-02T21:42:48.747Z,30.50
2019-02-02T21:45:16.649Z,31.63
2019-02-02T21:47:44.391Z,31.97
2019-02-02T21:50:17.923Z,30.80
2019-02-02T21:52:45.700Z,31.13
2019-02-02T21:55:16.398Z,33.27
2019-02-02T21:57:44.245Z,33.17
2019-02-02T22:00:21.644Z,33.10
2019-02-02T22:02:49.502Z,33.33
2019-02-02T22:05:17.416Z,34.10
2019-02-02T22:07:47.289Z,33.43
2019-02-02T22:10:15.076Z,32.27
2019-02-02T22:12:43.110Z,34.60
2019-02-02T22:15:17.927Z,32.73
2019-02-02T22:17:45.994Z,33.70
2019-02-02T22:20:14.428Z,34.97
2019-02-02T22:22:42.251Z,34.63
2019-02-02T22:25:22.552Z,32.70
2019-02-02T22:27:50.438Z,34.30
2019-02-02T22:30:21.520Z,33.83
2019-02-02T22:32:49.335Z,32.93
2019-02-02T22:35:17.102Z,33.93
2019-02-02T22:37:44.884Z,35.37
2019-02-02T22:40:16.019Z,33.00
2019-02-02T22:42:43.863Z,33.80
2019-02-02T22:45:14.529Z,33.20
2019-02-02T22:47:42.319Z,32.57
2019-02-02T22:50:13.210Z,31.47
2019-02-02T22:52:40.985Z,30.83
2019-02-02T22:55:09.661Z,34.53
2019-02-02T22:57:37.427Z,30.73
2019-02-02T23:01:01.127Z,33.60
2019-02-02T23:03:46.118Z,32.37
2019-02-02T23:07:02.885Z,32.40
2019-02-02T23:10:35.189Z,36.17
2019-02-02T23:13:37.165Z,31.23
2019-02-02T23:16:22.123Z,33.13
2019-02-02T23:18:50.309Z,33.97
2019-02-02T23:21:18.160Z,33.17
2019-02-02T23:23:45.950Z,35.03
2019-02-02T23:26:13.729Z,35.57
2019-02-02T23:28:41.485Z,33.37
2019-02-02T23:31:09.323Z,34.23
2019-02-02T23:33:37.386Z,32.37
2019-02-02T23:36:05.149Z,32.70
2019-02-02T23:38:32.917Z,32.17
2019-02-02T23:41:00.683Z,32.90
2019-02-02T23:43:28.522Z,32.33
2019-02-02T23:45:56.288Z,33.70
2019-02-02T23:48:24.320Z,34.07
2019-02-02T23:50:52.106Z,33.80
2019-02-02T23:53:19.857Z,33.90
2019-02-02T23:55:47.669Z,34.17
2019-02-02T23:58:15.448Z,34.10
